Time;durP1;ratioP1;P1;durP2;ratioP2;P2;SDS_P1;SDS_P2;PMS_P1;PMS_P2;Temp;Humidity;BMP_temperature;BMP_pressure;BME280_temperature;BME280_humidity;BME280_pressure;Samples;Min_cycle;Max_cycle;Signal;HPM_P1;HPM_P2
2023/03/21 00:23:38;;;;;;;40.30;25.27;;;12.10;99.90;;;;;;6187629;22;20045;-85
2023/03/21 00:26:05;;;;;;;43.72;25.55;;;12.10;99.90;;;;;;6257610;22;20011;-85
2023/03/21 00:28:31;;;;;;;53.13;26.90;;;12.10;99.90;;;;;;6257316;22;20003;-86
2023/03/21 00:30:59;;;;;;;44.28;25.48;;;12.10;99.90;;;;;;6255840;22;20011;-86
2023/03/21 01:22:01;;;;;;;25.92;12.80;;;12.30;99.90;;;;;;6269247;22;20023;-87
2023/03/21 01:24:27;;;;;;;17.25;11.02;;;12.30;99.90;;;;;;6259467;22;20015;-91
2023/03/21 01:26:54;;;;;;;17.35;10.45;;;12.30;99.90;;;;;;6258447;22;20011;-90
2023/03/21 01:29:21;;;;;;;18.83;10.27;;;12.30;99.90;;;;;;6254653;22;20010;-89
2023/03/21 01:31:48;;;;;;;16.92;9.43;;;12.30;99.90;;;;;;6251677;22;20004;-88
2023/03/21 01:34:15;;;;;;;15.85;9.63;;;12.20;99.90;;;;;;6252006;22;20464;-89
2023/03/21 01:36:41;;;;;;;12.00;8.13;;;12.30;99.90;;;;;;6251799;22;20100;-90
2023/03/21 01:39:14;;;;;;;11.68;7.90;;;12.10;99.90;;;;;;6251866;22;20003;-91
2023/03/21 01:41:41;;;;;;;18.45;8.30;;;12.10;99.90;;;;;;6251800;22;20018;-89
2023/03/21 01:44:17;;;;;;;17.05;7.53;;;12.10;99.90;;;;;;6252073;22;20075;-89
2023/03/21 01:46:48;;;;;;;14.82;7.70;;;12.10;99.90;;;;;;6251917;22;20008;-91
2023/03/21 01:49:46;;;;;;;20.60;8.23;;;12.10;99.90;;;;;;6278090;22;20018;-93
2023/03/21 01:52:36;;;;;;;14.10;7.90;;;12.10;99.90;;;;;;6273239;22;20075;-93
2023/03/21 01:55:12;;;;;;;14.07;8.02;;;12.00;99.90;;;;;;6277171;22;20043;-92
2023/03/21 01:57:53;;;;;;;14.02;7.32;;;12.00;99.90;;;;;;6252011;22;20451;-91
2023/03/21 02:00:25;;;;;;;13.35;8.10;;;12.00;99.90;;;;;;6250965;22;20007;-92
2023/03/21 02:03:10;;;;;;;13.55;8.00;;;12.00;99.90;;;;;;6251507;22;20057;-94
2023/03/21 02:05:55;;;;;;;12.30;7.53;;;11.90;99.90;;;;;;6275068;22;20337;-92
2023/03/21 02:08:25;;;;;;;14.25;7.30;;;12.00;99.90;;;;;;6276523;22;20027;-92
2023/03/21 02:10:52;;;;;;;11.30;7.40;;;11.90;99.90;;;;;;6251469;22;20004;-91
2023/03/21 02:13:35;;;;;;;13.20;7.57;;;11.90;99.90;;;;;;6251651;22;20035;-91
2023/03/21 02:16:15;;;;;;;10.85;6.72;;;11.90;99.90;;;;;;6251565;22;20095;-90
2023/03/21 02:18:46;;;;;;;13.15;7.00;;;11.90;99.90;;;;;;6251691;22;20061;-91
2023/03/21 02:21:28;;;;;;;12.10;7.82;;;11.90;99.90;;;;;;6251082;22;20024;-90
2023/03/21 02:24:19;;;;;;;12.50;6.95;;;11.90;99.90;;;;;;6251715;22;20082;-91
2023/03/21 02:26:51;;;;;;;11.88;7.03;;;11.80;99.90;;;;;;6251418;22;20057;-91
2023/03/21 02:29:45;;;;;;;18.17;7.70;;;11.80;99.90;;;;;;6256090;22;20008;-91
2023/03/21 02:32:30;;;;;;;11.02;6.70;;;11.70;99.90;;;;;;6251226;22;20004;-92
2023/03/21 02:35:22;;;;;;;10.48;7.03;;;11.60;99.90;;;;;;6251268;22;20008;-91
2023/03/21 02:38:07;;;;;;;10.95;6.70;;;11.60;99.90;;;;;;6276846;22;20012;-90
2023/03/21 02:40:39;;;;;;;14.15;7.85;;;11.70;99.90;;;;;;6276835;22;20452;-90
2023/03/21 02:43:19;;;;;;;13.43;7.50;;;11.60;99.90;;;;;;6251117;22;20011;-89
2023/03/21 02:46:17;;;;;;;15.48;7.75;;;11.70;99.90;;;;;;6251428;22;20322;-90
2023/03/21 02:49:12;;;;;;;15.48;7.50;;;11.70;99.90;;;;;;6130354;23;20013;-92
2023/03/21 03:07:33;;;;;;;11.48;5.60;;;11.60;99.90;;;;;;6155315;23;20012;-90
2023/03/21 03:10:12;;;;;;;7.75;5.47;;;11.40;99.90;;;;;;6130487;23;20013;-90
2023/03/21 03:13:28;;;;;;;6.80;5.78;;;11.40;99.90;;;;;;6155038;23;20012;-92
2023/03/21 03:16:00;;;;;;;9.63;5.20;;;11.50;99.90;;;;;;6104121;23;20346;-91
2023/03/21 03:18:51;;;;;;;10.93;4.78;;;11.50;99.90;;;;;;6155064;23;20006;-90
2023/03/21 03:21:32;;;;;;;7.07;4.80;;;11.40;99.90;;;;;;6154616;23;20025;-92
2023/03/21 03:24:11;;;;;;;11.90;5.07;;;11.50;99.90;;;;;;6157057;22;20009;-92
2023/03/21 03:26:51;;;;;;;10.13;5.93;;;11.50;99.90;;;;;;6276521;22;20444;-92
2023/03/21 03:29:21;;;;;;;11.25;5.22;;;11.50;99.90;;;;;;6250933;22;20015;-91
2023/03/21 03:31:52;;;;;;;9.50;5.35;;;11.50;99.90;;;;;;6250811;22;20090;-91
2023/03/21 03:34:25;;;;;;;12.30;5.88;;;11.50;99.90;;;;;;6250890;22;20425;-91
2023/03/21 03:36:58;;;;;;;9.27;5.20;;;11.50;99.90;;;;;;6276057;22;20023;-90
2023/03/21 03:39:36;;;;;;;9.40;6.00;;;11.40;99.90;;;;;;6251151;22;20014;-90
2023/03/21 03:42:18;;;;;;;11.35;5.50;;;11.40;99.90;;;;;;6276223;22;20012;-91
2023/03/21 03:44:52;;;;;;;10.77;6.22;;;11.40;99.90;;;;;;6250844;22;20099;-93
2023/03/21 03:47:51;;;;;;;12.27;6.10;;;11.40;99.90;;;;;;6250841;22;20007;-91
2023/03/21 03:50:22;;;;;;;11.65;6.32;;;11.40;99.90;;;;;;6250784;22;20020;-93
2023/03/21 03:53:06;;;;;;;11.23;5.97;;;11.40;99.90;;;;;;6254149;22;20031;-90
2023/03/21 03:55:33;;;;;;;;;;;11.50;99.90;;;;;;6252738;22;20086;-91
2023/03/21 03:58:06;;;;;;;11.25;6.22;;;11.50;99.90;;;;;;6226950;22;19899;-89
2023/03/21 04:00:34;;;;;;;9.35;5.95;;;11.40;99.90;;;;;;6251010;22;20030;-92
2023/03/21 04:03:00;;;;;;;10.00;5.43;;;11.40;99.90;;;;;;6250692;22;20079;-91
2023/03/21 04:05:27;;;;;;;18.13;6.43;;;11.50;99.90;;;;;;6250616;22;20016;-89
2023/03/21 04:07:53;;;;;;;11.07;6.10;;;11.50;99.90;;;;;;6250754;22;20026;-91
2023/03/21 04:10:28;;;;;;;12.85;6.20;;;11.50;99.90;;;;;;6250651;22;20408;-91
2023/03/21 04:12:55;;;;;;;11.18;5.60;;;11.50;99.90;;;;;;6250580;22;20034;-90
2023/03/21 04:15:31;;;;;;;8.40;6.25;;;11.50;99.90;;;;;;6250667;22;20015;-90
2023/03/21 04:18:04;;;;;;;14.43;6.00;;;11.50;99.90;;;;;;6250742;22;20073;-92
2023/03/21 04:20:31;;;;;;;9.32;4.97;;;11.50;99.90;;;;;;6250622;22;20024;-88
2023/03/21 04:22:57;;;;;;;10.70;6.03;;;11.50;99.90;;;;;;6251720;22;20015;-91
2023/03/21 04:25:27;;;;;;;8.40;5.20;;;11.40;99.90;;;;;;6252553;22;20008;-89
2023/03/21 04:27:57;;;;;;;10.77;5.13;;;11.50;99.90;;;;;;6252811;22;20326;-91
2023/03/21 04:31:06;;;;;;;7.90;5.32;;;11.50;99.90;;;;;;6173575;23;20017;-92
2023/03/21 04:33:39;;;;;;;10.52;5.18;;;11.50;99.90;;;;;;6134588;23;20005;-92
2023/03/21 04:36:08;;;;;;;9.90;4.88;;;11.40;99.90;;;;;;6132524;23;20447;-92
2023/03/21 04:38:35;;;;;;;17.17;5.38;;;11.40;99.90;;;;;;6131879;23;20006;-92
2023/03/21 04:41:04;;;;;;;7.43;4.85;;;11.40;99.90;;;;;;6132287;23;20014;-92
2023/03/21 04:43:31;;;;;;;6.97;4.55;;;11.40;99.90;;;;;;6131598;23;20516;-90
2023/03/21 04:45:57;;;;;;;6.85;4.30;;;11.40;99.90;;;;;;6131773;23;20040;-92
2023/03/21 04:48:26;;;;;;;5.88;4.15;;;11.30;99.90;;;;;;6131728;23;20001;-91
2023/03/21 04:50:53;;;;;;;4.88;4.00;;;11.30;99.90;;;;;;6131685;23;20017;-93
2023/03/21 04:53:20;;;;;;;8.63;3.80;;;11.30;99.90;;;;;;6131692;23;20009;-91
2023/03/21 04:55:46;;;;;;;7.13;4.00;;;11.30;99.90;;;;;;6131470;23;20116;-90
2023/03/21 04:58:13;;;;;;;5.93;3.85;;;11.30;99.90;;;;;;6131844;23;20005;-90
2023/03/21 05:00:39;;;;;;;9.57;4.07;;;11.30;99.90;;;;;;6136824;22;20085;-91
2023/03/21 05:03:09;;;;;;;6.40;4.20;;;11.30;99.90;;;;;;6252094;22;20097;-90
2023/03/21 05:05:37;;;;;;;7.93;3.95;;;11.30;99.90;;;;;;6252215;22;20043;-91
2023/03/21 05:08:05;;;;;;;6.40;3.47;;;11.20;99.90;;;;;;6252057;22;20043;-89
2023/03/21 05:10:31;;;;;;;5.63;3.20;;;11.20;99.90;;;;;;6252120;22;20007;-90
2023/03/21 05:12:58;;;;;;;6.65;3.78;;;11.20;99.90;;;;;;6251988;22;20003;-93
2023/03/21 05:15:27;;;;;;;5.40;4.35;;;11.20;99.90;;;;;;6253383;22;20015;-91
2023/03/21 05:17:53;;;;;;;4.00;3.42;;;11.20;99.90;;;;;;6252757;22;20078;-91
2023/03/21 05:20:20;;;;;;;10.80;3.83;;;11.30;99.90;;;;;;6251664;22;20007;-92
2023/03/21 05:22:50;;;;;;;6.20;3.70;;;11.20;99.90;;;;;;6251688;22;20011;-90
2023/03/21 05:25:20;;;;;;;6.40;3.80;;;11.20;99.90;;;;;;6252090;22;20007;-90
2023/03/21 05:28:07;;;;;;;7.13;3.35;;;11.20;99.90;;;;;;6251935;22;20007;-92
2023/03/21 05:30:34;;;;;;;7.65;3.88;;;11.10;99.90;;;;;;6251947;22;20016;-90
2023/03/21 05:33:02;;;;;;;6.03;3.83;;;11.10;99.90;;;;;;6251689;22;20000;-89
2023/03/21 05:35:29;;;;;;;6.57;4.40;;;11.00;99.90;;;;;;6251861;22;20023;-90
2023/03/21 05:37:59;;;;;;;4.03;3.67;;;11.00;99.90;;;;;;6251810;22;20000;-90
2023/03/21 05:40:29;;;;;;;6.72;4.05;;;11.10;99.90;;;;;;6251929;22;20559;-91
2023/03/21 05:42:58;;;;;;;7.15;4.88;;;11.10;99.90;;;;;;6251412;22;20007;-90
2023/03/21 05:45:25;;;;;;;12.02;5.68;;;11.10;99.90;;;;;;6251747;22;20010;-92
2023/03/21 05:47:51;;;;;;;10.20;6.00;;;11.10;99.90;;;;;;6251625;22;20061;-91
2023/03/21 05:50:20;;;;;;;11.73;4.60;;;11.10;99.90;;;;;;6251711;22;20012;-89
2023/03/21 05:53:00;;;;;;;8.23;4.65;;;11.10;99.90;;;;;;6251620;22;20010;-90
2023/03/21 05:55:27;;;;;;;8.68;5.18;;;11.10;99.90;;;;;;6251462;22;20097;-92
2023/03/21 05:57:56;;;;;;;10.95;6.20;;;11.20;99.90;;;;;;6251413;22;20007;-92
2023/03/21 06:00:27;;;;;;;9.88;4.60;;;11.20;99.90;;;;;;6251745;22;20497;-94
2023/03/21 06:03:14;;;;;;;6.35;5.18;;;11.30;99.90;;;;;;6277129;22;20004;-93
2023/03/21 06:05:58;;;;;;;;;;;11.30;99.90;;;;;;6252243;22;20011;-91
2023/03/21 06:08:30;;;;;;;13.27;6.25;;;11.30;99.90;;;;;;6227167;22;19981;-92
2023/03/21 06:10:57;;;;;;;8.80;5.45;;;11.40;99.90;;;;;;6251765;22;19999;-91
2023/03/21 06:13:24;;;;;;;9.95;4.85;;;11.40;99.90;;;;;;6251704;22;20003;-90
2023/03/21 06:15:51;;;;;;;7.25;5.13;;;11.50;99.90;;;;;;6251372;22;20023;-89
2023/03/21 06:18:22;;;;;;;7.80;4.57;;;11.50;99.90;;;;;;6248750;22;20456;-92
2023/03/21 06:21:15;;;;;;;10.60;4.70;;;11.50;99.90;;;;;;6174500;23;20049;-91
2023/03/21 06:23:42;;;;;;;8.40;4.20;;;11.50;99.90;;;;;;6130741;23;20005;-93
2023/03/21 06:26:08;;;;;;;11.60;4.80;;;11.60;99.90;;;;;;6130606;23;20017;-89
2023/03/21 06:28:35;;;;;;;10.30;4.85;;;11.60;99.90;;;;;;6130901;23;20009;-90
2023/03/21 06:31:02;;;;;;;11.23;5.53;;;11.70;99.90;;;;;;6130591;23;20432;-90
2023/03/21 06:33:31;;;;;;;10.35;5.25;;;11.60;99.90;;;;;;6130996;23;20022;-92
2023/03/21 06:35:58;;;;;;;9.95;4.63;;;11.60;99.90;;;;;;6130664;23;20022;-92
2023/03/21 06:38:25;;;;;;;6.38;4.80;;;11.60;99.90;;;;;;6130890;23;20337;-90
2023/03/21 06:40:53;;;;;;;11.55;4.97;;;11.60;99.90;;;;;;6138875;23;20005;-91
2023/03/21 06:43:21;;;;;;;5.95;5.10;;;11.60;99.90;;;;;;6131253;23;20013;-92
2023/03/21 06:45:50;;;;;;;9.40;5.78;;;11.50;99.90;;;;;;6130658;23;20010;-90
2023/03/21 06:48:17;;;;;;;6.28;5.47;;;11.50;99.90;;;;;;6131059;23;20017;-90
2023/03/21 06:50:51;;;;;;;9.05;5.45;;;11.50;99.90;;;;;;6132211;23;20049;-90
2023/03/21 06:53:23;;;;;;;10.20;5.75;;;11.60;99.90;;;;;;6130969;23;20013;-91
2023/03/21 06:56:10;;;;;;;7.22;5.93;;;11.70;99.90;;;;;;6135201;23;20057;-92
2023/03/21 06:58:39;;;;;;;8.32;5.72;;;11.60;99.90;;;;;;6221834;22;20011;-91
2023/03/21 07:01:08;;;;;;;14.77;6.13;;;11.60;99.90;;;;;;6251428;22;20084;-91
2023/03/21 07:03:43;;;;;;;12.80;5.55;;;11.60;99.90;;;;;;6251297;22;20007;-92
2023/03/21 07:06:12;;;;;;;9.27;5.15;;;11.70;99.90;;;;;;6251005;22;20018;-91
2023/03/21 07:08:56;;;;;;;9.27;5.63;;;11.70;99.90;;;;;;6251117;22;20448;-92
2023/03/21 07:11:24;;;;;;;10.07;5.30;;;11.70;99.90;;;;;;6276742;22;20014;-91
2023/03/21 07:13:51;;;;;;;8.18;5.45;;;11.70;99.90;;;;;;6251079;22;20130;-94
2023/03/21 07:16:20;;;;;;;8.05;5.00;;;11.70;99.90;;;;;;6251100;22;20034;-90
2023/03/21 07:18:51;;;;;;;9.05;5.82;;;11.70;99.90;;;;;;6250772;22;20433;-91
2023/03/21 07:21:17;;;;;;;7.97;5.07;;;11.70;99.90;;;;;;6271535;22;20054;-93
2023/03/21 07:23:45;;;;;;;6.95;5.45;;;11.60;99.90;;;;;;6246161;22;20008;-91
2023/03/21 07:26:14;;;;;;;7.35;5.40;;;11.70;99.90;;;;;;6246301;22;20008;-92
2023/03/21 07:36:49;;;;;;;9.15;4.90;;;11.80;99.90;;;;;;6107312;22;20219;-94
2023/03/21 07:39:28;;;;;;;9.38;5.40;;;11.80;99.90;;;;;;6071377;23;20324;-94
2023/03/21 07:42:05;;;;;;;12.85;5.78;;;11.90;99.90;;;;;;6071232;23;20093;-94
2023/03/21 07:44:37;;;;;;;5.57;5.07;;;11.90;99.90;;;;;;6204831;22;20027;-87
2023/03/21 07:47:05;;;;;;;13.32;6.53;;;11.90;99.90;;;;;;6256250;22;20015;-86
2023/03/21 07:49:32;;;;;;;11.57;5.20;;;12.00;99.90;;;;;;6256442;22;20004;-88
2023/03/21 07:51:58;;;;;;;8.27;4.65;;;12.20;99.90;;;;;;6256187;22;20011;-88
2023/03/21 07:54:27;;;;;;;5.35;4.30;;;12.20;99.90;;;;;;6256018;22;20377;-88
2023/03/21 07:56:56;;;;;;;5.60;4.90;;;12.30;99.90;;;;;;6256469;22;20065;-89
2023/03/21 07:59:23;;;;;;;7.20;4.88;;;12.30;99.90;;;;;;6259485;22;20003;-92
2023/03/21 08:01:52;;;;;;;7.97;5.30;;;12.30;99.90;;;;;;6258056;22;20482;-84
2023/03/21 08:04:18;;;;;;;5.93;4.63;;;12.30;99.90;;;;;;6285812;22;20070;-86
2023/03/21 08:06:45;;;;;;;7.80;4.90;;;12.30;99.90;;;;;;6260600;22;20026;-87
2023/03/21 08:09:11;;;;;;;7.00;4.65;;;12.50;99.90;;;;;;6260757;22;20029;-88
2023/03/21 08:11:39;;;;;;;6.93;4.75;;;12.50;99.90;;;;;;6261124;22;20011;-87
2023/03/21 08:14:05;;;;;;;7.43;5.70;;;12.50;99.90;;;;;;6260330;22;20003;-74
2023/03/21 08:16:32;;;;;;;8.18;5.20;;;12.50;99.90;;;;;;6312613;22;20019;-73
2023/03/21 08:18:58;;;;;;;6.75;5.35;;;12.50;99.90;;;;;;6285288;22;19999;-76
2023/03/21 08:21:25;;;;;;;8.90;6.00;;;12.50;99.90;;;;;;6312560;22;20010;-75
2023/03/21 08:23:52;;;;;;;7.38;6.68;;;12.40;99.90;;;;;;6285459;22;20003;-75
2023/03/21 08:26:18;;;;;;;7.53;6.78;;;12.40;99.90;;;;;;6312126;22;20363;-75
2023/03/21 08:28:45;;;;;;;10.20;7.75;;;12.40;99.90;;;;;;6285570;22;20425;-88
2023/03/21 08:31:12;;;;;;;8.43;7.20;;;12.50;99.90;;;;;;6258232;22;20021;-88
2023/03/21 08:33:38;;;;;;;13.23;8.80;;;12.50;99.90;;;;;;6257875;22;20010;-90
2023/03/21 08:36:06;;;;;;;10.35;7.55;;;12.40;99.90;;;;;;6259464;22;20019;-78
2023/03/21 08:38:33;;;;;;;9.23;8.13;;;12.50;99.90;;;;;;6285152;22;20005;-80
2023/03/21 08:41:02;;;;;;;11.73;8.80;;;12.50;99.90;;;;;;6259751;22;20011;-77
2023/03/21 08:47:17;;;;;;;12.65;9.40;;;12.40;99.90;;;;;;6315685;22;20419;-90
2023/03/21 08:49:44;;;;;;;10.27;8.43;;;12.40;99.90;;;;;;6261669;22;20003;-84
2023/03/21 08:52:11;;;;;;;13.27;10.13;;;12.40;99.90;;;;;;6283114;22;20007;-89
2023/03/21 08:54:44;;;;;;;18.50;11.00;;;12.50;99.90;;;;;;6257414;22;20496;-89
2023/03/21 08:57:13;;;;;;;14.35;9.23;;;12.60;99.90;;;;;;6257535;22;20022;-91
2023/03/21 08:59:40;;;;;;;12.45;9.90;;;12.60;99.90;;;;;;6312939;22;20033;-88
2023/03/21 09:02:06;;;;;;;11.25;10.00;;;12.60;99.90;;;;;;6284438;22;20008;-90
2023/03/21 09:04:33;;;;;;;10.50;7.82;;;12.60;99.90;;;;;;6258940;22;20005;-85
2023/03/21 09:07:05;;;;;;;10.23;7.90;;;12.40;99.90;;;;;;6285189;22;20011;-88
2023/03/21 09:09:35;;;;;;;12.43;8.40;;;12.50;99.90;;;;;;6261146;22;20014;-92
2023/03/21 09:12:01;;;;;;;8.05;7.32;;;12.50;99.90;;;;;;6251964;22;20012;-92
2023/03/21 09:14:27;;;;;;;8.15;7.35;;;12.50;99.90;;;;;;6260434;22;20057;-90
2023/03/21 09:16:54;;;;;;;11.32;7.70;;;12.50;99.90;;;;;;6259882;22;20019;-91
2023/03/21 09:19:24;;;;;;;9.88;7.05;;;12.40;99.90;;;;;;6260039;22;20357;-93
2023/03/21 09:21:54;;;;;;;7.75;6.78;;;12.30;99.90;;;;;;6261071;22;20011;-92
2023/03/21 09:24:21;;;;;;;8.30;7.50;;;12.30;99.90;;;;;;6260466;22;20010;-89
2023/03/21 09:26:50;;;;;;;16.05;7.65;;;12.30;99.90;;;;;;6259599;22;20031;-90
2023/03/21 09:29:19;;;;;;;14.27;11.10;;;12.40;99.90;;;;;;6259988;22;20002;-87
2023/03/21 09:31:48;;;;;;;7.53;6.82;;;12.50;99.90;;;;;;6313118;22;20003;-83
2023/03/21 09:34:15;;;;;;;10.13;6.50;;;12.60;99.90;;;;;;6262107;22;19999;-87
2023/03/21 09:36:43;;;;;;;7.13;6.53;;;12.60;99.90;;;;;;6259535;22;20318;-85
2023/03/21 09:39:10;;;;;;;14.07;7.88;;;12.60;99.90;;;;;;6259872;22;19999;-85
2023/03/21 09:42:01;;;;;;;8.05;7.25;;;12.70;99.90;;;;;;6259976;22;20011;-78
2023/03/21 09:44:40;;;;;;;13.05;8.55;;;12.60;99.90;;;;;;6311737;22;20004;-89
2023/03/21 09:47:27;;;;;;;14.70;8.68;;;12.60;99.90;;;;;;6252134;22;20038;-84
2023/03/21 09:49:58;;;;;;;12.55;8.77;;;12.60;99.90;;;;;;6251933;22;20090;-85
2023/03/21 09:52:36;;;;;;;13.88;9.60;;;12.70;99.90;;;;;;6278235;22;20000;-85
2023/03/21 09:55:04;;;;;;;12.57;10.15;;;12.80;99.90;;;;;;6252685;22;20018;-82
2023/03/21 09:57:42;;;;;;;10.13;8.50;;;12.90;99.90;;;;;;6253420;22;20011;-87
2023/03/21 10:00:28;;;;;;;10.27;8.27;;;13.10;99.90;;;;;;6253547;22;20007;-84
2023/03/21 10:02:58;;;;;;;10.05;7.70;;;13.10;99.90;;;;;;6253801;22;20008;-83
2023/03/21 10:05:29;;;;;;;9.65;8.68;;;13.30;99.90;;;;;;6279463;22;20133;-84
2023/03/21 10:56:11;;;;;;;74.30;38.20;;;13.00;99.90;;;;;;6291670;22;20056;-92
2023/03/21 10:58:45;;;;;;;17.08;12.25;;;13.10;99.90;;;;;;6166242;22;20014;-92
2023/03/21 11:01:29;;;;;;;9.15;8.25;;;13.00;99.90;;;;;;6287093;22;20331;-92
2023/03/21 11:03:59;;;;;;;7.07;6.47;;;13.10;99.90;;;;;;6287851;22;20018;-91
2023/03/21 11:06:30;;;;;;;6.05;5.65;;;12.90;99.90;;;;;;6287421;22;20014;-91
2023/03/21 11:09:20;;;;;;;6.43;5.93;;;13.00;99.90;;;;;;6287410;22;20074;-93
2023/03/21 11:12:14;;;;;;;6.60;5.95;;;13.10;99.90;;;;;;6287250;22;20059;-92
2023/03/21 11:14:43;;;;;;;7.70;6.50;;;13.10;99.90;;;;;;6288783;22;20007;-92
2023/03/21 11:17:34;;;;;;;7.78;6.55;;;13.20;99.90;;;;;;6287137;22;20509;-92
2023/03/21 11:20:05;;;;;;;7.57;6.75;;;13.30;99.90;;;;;;6299374;22;20081;-92
2023/03/21 11:22:42;;;;;;;7.43;6.80;;;13.30;99.90;;;;;;6286673;22;20007;-92
2023/03/21 11:25:19;;;;;;;7.60;6.63;;;13.50;99.90;;;;;;6287045;22;20030;-92
2023/03/21 11:27:54;;;;;;;7.63;7.03;;;13.60;99.90;;;;;;6287036;22;20014;-92
2023/03/21 11:30:24;;;;;;;7.22;6.72;;;13.70;99.90;;;;;;6287358;22;20007;-92
2023/03/21 11:32:56;;;;;;;6.75;6.20;;;13.70;99.90;;;;;;6287386;22;20336;-93
2023/03/21 11:35:32;;;;;;;7.22;6.72;;;13.70;99.90;;;;;;6287574;22;20025;-92
2023/03/21 11:37:58;;;;;;;8.75;8.02;;;13.70;99.90;;;;;;6286920;22;20007;-91
2023/03/21 11:40:29;;;;;;;8.68;7.88;;;13.70;99.90;;;;;;6286625;22;20003;-92
2023/03/21 11:42:58;;;;;;;7.53;6.93;;;13.80;99.90;;;;;;6286787;22;20010;-93
2023/03/21 11:45:27;;;;;;;6.85;6.25;;;13.80;99.90;;;;;;6286683;22;20063;-91
2023/03/21 11:47:56;;;;;;;9.50;6.50;;;13.90;99.90;;;;;;6287224;22;20002;-94
2023/03/21 11:50:46;;;;;;;9.93;8.25;;;13.90;99.90;;;;;;6290078;22;20007;-94
2023/03/21 11:53:57;;;;;;;10.18;9.07;;;14.00;99.90;;;;;;6288393;22;20003;-94
2023/03/21 11:56:35;;;;;;;9.00;8.30;;;14.10;99.90;;;;;;6230372;22;20015;-93
2023/03/21 11:59:20;;;;;;;10.05;9.05;;;14.10;99.90;;;;;;6273290;22;20023;-93
2023/03/21 12:01:56;;;;;;;9.98;9.10;;;14.10;99.90;;;;;;6281467;22;20033;-94
2023/03/21 12:04:45;;;;;;;9.27;8.55;;;14.00;99.90;;;;;;6281417;22;20011;-93
2023/03/21 12:07:15;;;;;;;9.35;8.50;;;14.00;99.90;;;;;;6307273;22;20350;-93
2023/03/21 12:09:48;;;;;;;9.35;8.55;;;14.00;99.90;;;;;;6281526;22;20007;-91
2023/03/21 12:12:45;;;;;;;9.55;8.82;;;14.00;99.90;;;;;;6281308;22;20011;-92
2023/03/21 12:15:37;;;;;;;11.20;10.00;;;14.10;99.90;;;;;;6281452;22;20019;-91
2023/03/21 12:18:37;;;;;;;11.80;10.60;;;14.10;99.90;;;;;;6258907;22;20030;-91
2023/03/21 12:21:30;;;;;;;11.68;10.57;;;14.10;99.90;;;;;;6255943;22;20057;-94
2023/03/21 12:24:09;;;;;;;11.05;10.05;;;14.10;99.90;;;;;;6266995;22;20006;-92
2023/03/21 12:27:10;;;;;;;12.02;10.82;;;13.90;99.90;;;;;;6266213;22;20065;-91
2023/03/21 12:29:56;;;;;;;12.45;11.07;;;13.80;99.90;;;;;;6283515;22;20006;-93
2023/03/21 12:33:00;;;;;;;12.77;11.40;;;13.80;99.90;;;;;;6234281;22;20023;-92
2023/03/21 12:35:59;;;;;;;10.50;9.60;;;13.70;99.90;;;;;;6285649;22;20058;-92
2023/03/21 12:38:40;;;;;;;11.35;9.88;;;13.60;99.90;;;;;;6257708;22;20091;-87
2023/03/21 12:41:28;;;;;;;15.25;10.18;;;13.50;99.90;;;;;;6252782;22;20499;-88
2023/03/21 12:44:20;;;;;;;11.18;9.43;;;13.30;99.90;;;;;;6255088;22;20008;-87
2023/03/21 12:46:51;;;;;;;10.18;8.75;;;13.10;99.90;;;;;;6242598;22;20445;-86
2023/03/21 12:49:53;;;;;;;9.05;7.88;;;13.00;99.90;;;;;;6255797;22;20000;-88
2023/03/21 12:52:28;;;;;;;11.05;8.40;;;12.90;99.90;;;;;;6134141;23;20006;-88
2023/03/21 12:55:06;;;;;;;8.43;7.50;;;12.80;99.90;;;;;;6161422;23;20009;-87
2023/03/21 12:57:54;;;;;;;9.60;8.52;;;12.80;99.90;;;;;;6160245;23;20506;-86
2023/03/21 13:00:29;;;;;;;8.82;7.22;;;12.80;99.90;;;;;;6134024;23;20013;-86
2023/03/21 13:03:02;;;;;;;8.90;7.22;;;12.80;99.90;;;;;;6110034;23;20013;-85
2023/03/21 13:05:38;;;;;;;8.55;6.82;;;12.70;99.90;;;;;;6160391;23;20029;-86
2023/03/21 13:08:17;;;;;;;10.77;7.25;;;12.70;99.90;;;;;;6158766;23;20130;-86
2023/03/21 13:10:46;;;;;;;7.60;6.90;;;12.60;99.90;;;;;;6110238;23;20056;-87
2023/03/21 13:13:43;;;;;;;10.60;8.45;;;12.60;99.90;;;;;;6109783;23;20032;-89
2023/03/21 13:16:15;;;;;;;18.02;10.90;;;12.70;99.90;;;;;;6109396;23;20017;-84
2023/03/21 13:19:10;;;;;;;14.35;8.85;;;12.70;99.90;;;;;;6109559;23;20010;-83
2023/03/21 13:21:42;;;;;;;;;;;12.70;99.90;;;;;;6158478;23;20012;-86
2023/03/21 13:24:37;;;;;;;12.63;8.85;;;12.70;99.90;;;;;;6131529;23;19943;-87
2023/03/21 13:27:15;;;;;;;18.77;9.63;;;12.80;99.90;;;;;;6156825;23;20033;-80
2023/03/21 13:29:51;;;;;;;16.50;9.20;;;12.90;99.90;;;;;;6271455;22;20026;-89
2023/03/21 13:32:43;;;;;;;19.00;11.45;;;13.20;99.90;;;;;;6239889;22;20058;-91
2023/03/21 13:35:28;;;;;;;;;;;;;;;;;;;;;
2023/03/21 13:38:18;;;;;;;15.95;9.98;;;13.30;99.90;;;;;;6282167;22;20445;-90
2023/03/21 13:40:57;;;;;;;19.65;10.98;;;13.20;99.90;;;;;;6228102;22;20003;-91
2023/03/21 13:43:42;;;;;;;18.05;11.38;;;13.20;99.90;;;;;;6227083;22;20421;-90
2023/03/21 13:46:12;;;;;;;14.50;10.82;;;13.30;99.90;;;;;;6227099;22;20004;-90
2023/03/21 13:48:58;;;;;;;13.20;9.93;;;13.30;99.90;;;;;;6228175;22;20014;-93
2023/03/21 13:51:28;;;;;;;8.82;7.65;;;13.50;99.90;;;;;;6232654;22;20044;-91
2023/03/21 13:54:23;;;;;;;12.13;8.00;;;13.60;99.90;;;;;;6230004;22;20007;-91
2023/03/21 13:56:58;;;;;;;9.82;7.47;;;13.70;99.90;;;;;;6253272;22;20113;-93
2023/03/21 13:59:47;;;;;;;8.77;7.28;;;13.70;99.90;;;;;;6258526;22;20003;-94
2023/03/21 14:02:36;;;;;;;11.05;7.82;;;13.70;99.90;;;;;;6262524;22;20011;-93
2023/03/21 14:05:20;;;;;;;10.82;7.65;;;13.70;99.90;;;;;;6258123;22;20008;-92
2023/03/21 14:07:54;;;;;;;9.20;7.63;;;13.60;99.90;;;;;;6253315;22;20011;-91
2023/03/21 14:10:33;;;;;;;18.95;12.05;;;13.60;99.90;;;;;;6254233;22;20008;-91
2023/03/21 14:13:19;;;;;;;8.02;6.88;;;13.70;99.90;;;;;;6229629;22;20060;-94
2023/03/21 14:16:09;;;;;;;7.97;6.82;;;13.70;99.90;;;;;;6223431;22;20019;-92
2023/03/21 14:19:03;;;;;;;8.65;7.75;;;13.60;99.90;;;;;;6286480;22;20360;-91
2023/03/21 14:27:46;;;;;;;;;;;13.60;99.90;;;;;;6096726;23;20085;-89
2023/03/21 14:30:38;;;;;;;7.00;5.65;;;13.50;99.90;;;;;;6070721;23;19932;-89
2023/03/21 14:33:40;;;;;;;6.10;5.28;;;13.50;99.90;;;;;;6073270;23;20032;-93
2023/03/21 14:36:16;;;;;;;7.15;6.35;;;13.50;99.90;;;;;;6117433;23;20101;-93
2023/03/21 14:38:52;;;;;;;7.35;6.65;;;13.40;99.90;;;;;;6117716;23;20033;-93
2023/03/21 14:41:23;;;;;;;9.13;7.47;;;13.30;99.90;;;;;;6093482;23;20068;-93
2023/03/21 14:44:39;;;;;;;10.32;7.93;;;13.40;99.90;;;;;;6093243;23;20011;-93
2023/03/21 14:47:18;;;;;;;11.13;8.60;;;13.40;99.90;;;;;;6012235;23;20434;-92
2023/03/21 14:49:45;;;;;;;11.15;8.85;;;13.30;99.90;;;;;;6012097;23;20025;-92
2023/03/21 14:52:31;;;;;;;12.90;10.75;;;13.30;99.90;;;;;;6013381;23;20442;-93
2023/03/21 14:55:00;;;;;;;15.63;11.65;;;13.20;99.90;;;;;;6011528;23;20016;-93
2023/03/21 14:57:32;;;;;;;17.33;13.30;;;13.10;99.90;;;;;;6011491;23;20449;-92
2023/03/21 15:00:12;;;;;;;16.60;12.55;;;13.10;99.90;;;;;;6011426;23;20456;-91
2023/03/21 15:02:42;;;;;;;18.10;12.73;;;13.00;99.90;;;;;;6011465;23;20019;-93
2023/03/21 15:05:31;;;;;;;20.73;14.13;;;13.00;99.90;;;;;;6011628;23;20004;-92
2023/03/21 15:08:19;;;;;;;15.13;10.68;;;12.90;99.90;;;;;;6011919;23;20021;-93
2023/03/21 15:11:11;;;;;;;16.13;11.48;;;12.90;99.90;;;;;;6012170;23;20026;-93
2023/03/21 15:13:53;;;;;;;19.35;14.20;;;12.90;99.90;;;;;;6011629;23;20017;-93
2023/03/21 15:16:21;;;;;;;20.35;14.88;;;12.90;99.90;;;;;;6011227;23;20105;-93
2023/03/21 15:18:48;;;;;;;17.88;13.65;;;12.80;99.90;;;;;;6103986;23;20029;-93
2023/03/21 15:21:29;;;;;;;17.48;13.60;;;12.80;99.90;;;;;;6124650;23;20088;-92
2023/03/21 15:24:17;;;;;;;14.27;10.85;;;12.80;99.90;;;;;;6117809;23;20432;-92
2023/03/21 15:26:46;;;;;;;15.85;12.32;;;12.70;99.90;;;;;;6093260;23;20089;-92
2023/03/21 15:29:15;;;;;;;14.65;10.50;;;12.80;99.90;;;;;;6093223;23;20065;-92
2023/03/21 15:31:42;;;;;;;16.30;11.60;;;12.80;99.90;;;;;;6093185;23;20416;-92
2023/03/21 15:34:26;;;;;;;15.63;10.30;;;12.80;99.90;;;;;;6118046;23;20017;-94
2023/03/21 15:37:24;;;;;;;14.95;10.02;;;12.80;99.90;;;;;;6117163;23;20027;-93
2023/03/21 15:39:51;;;;;;;17.65;10.88;;;12.80;99.90;;;;;;6118204;23;20034;-92
2023/03/21 15:42:28;;;;;;;18.00;12.57;;;12.80;99.90;;;;;;6092732;23;20093;-93
2023/03/21 15:45:00;;;;;;;16.85;12.20;;;12.90;99.90;;;;;;6117330;23;20003;-94
2023/03/21 15:47:40;;;;;;;17.90;12.68;;;13.00;99.90;;;;;;6122977;23;20428;-92
2023/03/21 15:50:34;;;;;;;16.88;11.80;;;13.10;99.90;;;;;;6118001;23;20015;-94
2023/03/21 15:53:05;;;;;;;21.10;14.50;;;13.10;99.90;;;;;;6089047;23;20340;-94
2023/03/21 15:55:48;;;;;;;17.85;13.63;;;13.10;99.90;;;;;;6117187;23;20015;-94